Time,TemperatureF,DewpointF,PressureIn,WindDirection,WindDirectionDegrees,WindSpeedMPH,WindSpeedGustMPH,Humidity,HourlyPrecipIn,Conditions,Clouds,dailyrainin,SoftwareType,DateUTC
2013-10-24 00:02:00,59.9,48.0,29.91,SSE,160,19.0,23.0,65,0.00,,,0.11,weatherlink.com 1.10,2013-10-24 04:02:00,
2013-10-24 00:17:00,59.7,47.0,29.92,SE,138,18.0,23.0,64,0.00,,,0.11,weatherlink.com 1.10,2013-10-24 04:17:00,
2013-10-24 00:32:00,59.4,49.0,29.92,SE,126,18.0,26.0,68,0.00,,,0.00,weatherlink.com 1.10,2013-10-24 04:32:00,
2013-10-24 00:47:00,59.1,49.0,29.93,SE,124,12.0,27.0,70,0.00,,,0.00,weatherlink.com 1.10,2013-10-24 04:47:00,
2013-10-24 01:02:00,58.5,51.0,29.93,ESE,114,20.0,24.0,77,0.00,,,0.00,weatherlink.com 1.10,2013-10-24 05:02:00,
2013-10-24 01:17:00,57.9,49.0,29.94,SE,144,22.0,27.0,71,0.00,,,0.00,weatherlink.com 1.10,2013-10-24 05:17:00,
2013-10-24 01:33:00,57.1,49.0,29.95,SSE,150,21.0,28.0,75,0.00,,,0.00,weatherlink.com 1.10,2013-10-24 05:33:00,
2013-10-24 01:48:00,56.3,48.0,29.95,South,170,18.0,27.0,73,0.00,,,0.00,weatherlink.com 1.10,2013-10-24 05:48:00,
2013-10-24 02:03:00,55.9,48.0,29.96,SE,145,17.0,26.0,74,0.00,,,0.00,weatherlink.com 1.10,2013-10-24 06:03:00,
2013-10-24 02:18:00,55.4,48.0,29.96,SSE,150,26.0,26.0,77,0.00,,,0.00,weatherlink.com 1.10,2013-10-24 06:18:00,
2013-10-24 02:33:00,55.0,48.0,29.96,ESE,118,23.0,28.0,77,0.00,,,0.00,weatherlink.com 1.10,2013-10-24 06:33:00,
2013-10-24 02:48:00,54.8,48.0,29.96,SE,143,18.0,28.0,78,0.00,,,0.00,weatherlink.com 1.10,2013-10-24 06:48:00,
2013-10-24 03:03:00,54.7,47.0,29.96,SSE,161,16.0,27.0,75,0.00,,,0.00,weatherlink.com 1.10,2013-10-24 07:03:00,
2013-10-24 03:18:00,54.6,48.0,29.96,SE,144,15.0,26.0,78,0.00,,,0.00,weatherlink.com 1.10,2013-10-24 07:18:00,
2013-10-24 03:33:00,54.5,46.0,29.97,SSE,156,10.0,23.0,72,0.00,,,0.00,weatherlink.com 1.10,2013-10-24 07:33:00,
2013-10-24 03:48:00,54.2,44.0,29.98,SE,141,16.0,22.0,68,0.00,,,0.00,weatherlink.com 1.10,2013-10-24 07:48:00,
2013-10-24 04:03:00,54.1,45.0,29.98,SE,141,15.0,26.0,71,0.00,,,0.00,weatherlink.com 1.10,2013-10-24 08:03:00,
2013-10-24 04:18:00,54.0,44.0,29.98,SSE,154,15.0,24.0,70,0.00,,,0.00,weatherlink.com 1.10,2013-10-24 08:18:00,
2013-10-24 04:33:00,53.7,41.0,29.99,SSE,147,18.0,27.0,63,0.00,,,0.00,weatherlink.com 1.10,2013-10-24 08:33:00,
2013-10-24 04:48:00,53.7,43.0,30.00,SE,140,15.0,25.0,67,0.00,,,0.00,weatherlink.com 1.10,2013-10-24 08:48:00,
2013-10-24 05:03:00,53.3,43.0,30.00,SSE,162,17.0,23.0,67,0.00,,,0.00,weatherlink.com 1.10,2013-10-24 09:03:00,
2013-10-24 05:18:00,53.1,45.0,30.01,SE,146,11.0,22.0,73,0.00,,,0.00,weatherlink.com 1.10,2013-10-24 09:18:00,
2013-10-24 05:33:00,53.1,45.0,30.02,SSE,155,15.0,19.0,74,0.00,,,0.00,weatherlink.com 1.10,2013-10-24 09:33:00,
2013-10-24 05:48:00,52.8,44.0,30.03,SE,133,12.0,21.0,73,0.00,,,0.00,weatherlink.com 1.10,2013-10-24 09:48:00,
2013-10-24 06:03:00,52.5,44.0,30.04,SE,139,15.0,22.0,74,0.00,,,0.00,weatherlink.com 1.10,2013-10-24 10:03:00,
2013-10-24 06:18:00,52.4,45.0,30.05,SSE,150,20.0,23.0,77,0.00,,,0.00,weatherlink.com 1.10,2013-10-24 10:18:00,
2013-10-24 06:33:00,52.2,45.0,30.05,SE,124,12.0,22.0,75,0.00,,,0.00,weatherlink.com 1.10,2013-10-24 10:33:00,
2013-10-24 06:48:00,52.0,45.0,30.06,SE,146,18.0,21.0,76,0.00,,,0.00,weatherlink.com 1.10,2013-10-24 10:48:00,
2013-10-24 07:03:00,51.8,44.0,30.06,South,191,9.0,23.0,76,0.00,,,0.00,weatherlink.com 1.10,2013-10-24 11:03:00,
2013-10-24 07:18:00,51.6,45.0,30.07,SE,146,12.0,20.0,78,0.00,,,0.00,weatherlink.com 1.10,2013-10-24 11:18:00,
2013-10-24 07:34:00,51.4,44.0,30.07,SE,145,15.0,20.0,76,0.00,,,0.00,weatherlink.com 1.10,2013-10-24 11:34:00,
2013-10-24 07:49:00,51.5,44.0,30.08,SE,139,14.0,20.0,75,0.00,,,0.00,weatherlink.com 1.10,2013-10-24 11:49:00,
2013-10-24 08:04:00,51.6,43.0,30.09,SE,144,13.0,19.0,72,0.00,,,0.00,weatherlink.com 1.10,2013-10-24 12:04:00,
2013-10-24 08:19:00,51.6,43.0,30.10,SE,141,7.0,21.0,72,0.00,,,0.00,weatherlink.com 1.10,2013-10-24 12:19:00,
2013-10-24 08:34:00,51.7,44.0,30.10,SE,140,15.0,21.0,75,0.00,,,0.00,weatherlink.com 1.10,2013-10-24 12:34:00,
2013-10-24 08:49:00,51.7,44.0,30.11,SE,136,13.0,20.0,74,0.00,,,0.00,weatherlink.com 1.10,2013-10-24 12:49:00,
2013-10-24 11:50:00,53.5,43.0,30.12,SE,129,11.0,13.0,67,0.00,,,0.00,weatherlink.com 1.10,2013-10-24 15:50:00,
2013-10-24 12:05:00,53.2,40.0,30.12,SE,137,7.0,12.0,62,0.00,,,0.00,weatherlink.com 1.10,2013-10-24 16:05:00,
2013-10-24 12:20:00,53.6,42.0,30.12,SE,144,11.0,13.0,64,0.00,,,0.00,weatherlink.com 1.10,2013-10-24 16:20:00,
2013-10-24 12:50:00,53.9,40.0,30.10,ESE,122,6.0,11.0,60,0.00,,,0.00,weatherlink.com 1.10,2013-10-24 16:50:00,
2013-10-24 13:05:00,54.6,41.0,30.09,ESE,120,6.0,11.0,60,0.00,,,0.00,weatherlink.com 1.10,2013-10-24 17:05:00,
2013-10-24 13:20:00,54.5,40.0,30.09,ESE,117,4.0,12.0,59,0.00,,,0.00,weatherlink.com 1.10,2013-10-24 17:20:00,
2013-10-24 13:36:00,54.8,41.0,30.09,SE,131,6.0,12.0,59,0.00,,,0.00,weatherlink.com 1.10,2013-10-24 17:36:00,
2013-10-24 13:50:00,55.0,41.0,30.09,SE,127,5.0,12.0,60,0.00,,,0.00,weatherlink.com 1.10,2013-10-24 17:50:00,
2013-10-24 14:05:00,55.1,40.0,30.08,ESE,108,8.0,13.0,58,0.00,,,0.00,weatherlink.com 1.10,2013-10-24 18:05:00,
2013-10-24 14:20:00,54.7,39.0,30.08,SE,126,8.0,16.0,56,0.00,,,0.00,weatherlink.com 1.10,2013-10-24 18:20:00,
2013-10-24 14:35:00,55.7,40.0,30.09,SE,127,7.0,13.0,55,0.00,,,0.00,weatherlink.com 1.10,2013-10-24 18:35:00,
2013-10-24 14:50:00,55.6,40.0,30.08,SE,136,6.0,13.0,57,0.00,,,0.00,weatherlink.com 1.10,2013-10-24 18:50:00,
2013-10-24 15:05:00,55.8,40.0,30.08,SE,124,5.0,13.0,56,0.00,,,0.00,weatherlink.com 1.10,2013-10-24 19:05:00,
2013-10-24 15:20:00,55.5,39.0,30.08,ESE,117,9.0,16.0,55,0.00,,,0.00,weatherlink.com 1.10,2013-10-24 19:20:00,
2013-10-24 15:35:00,55.8,39.0,30.08,ESE,118,12.0,16.0,53,0.00,,,0.00,weatherlink.com 1.10,2013-10-24 19:35:00,
2013-10-24 15:50:00,56.3,38.0,30.08,ENE,63,7.0,15.0,50,0.00,,,0.00,weatherlink.com 1.10,2013-10-24 19:50:00,
2013-10-24 16:05:00,56.7,39.0,30.08,ESE,117,16.0,16.0,52,0.00,,,0.00,weatherlink.com 1.10,2013-10-24 20:05:00,
2013-10-24 16:20:00,56.7,40.0,30.09,ESE,114,6.0,17.0,54,0.00,,,0.00,weatherlink.com 1.10,2013-10-24 20:20:00,
2013-10-24 16:35:00,56.7,39.0,30.09,ESE,117,12.0,15.0,51,0.00,,,0.00,weatherlink.com 1.10,2013-10-24 20:35:00,
2013-10-24 16:50:00,56.6,38.0,30.09,SE,124,9.0,16.0,50,0.00,,,0.00,weatherlink.com 1.10,2013-10-24 20:50:00,
2013-10-24 17:05:00,56.6,39.0,30.09,SE,146,12.0,15.0,53,0.00,,,0.00,weatherlink.com 1.10,2013-10-24 21:05:00,
2013-10-24 17:20:00,56.5,39.0,30.09,East,97,7.0,16.0,53,0.00,,,0.00,weatherlink.com 1.10,2013-10-24 21:20:00,
2013-10-24 17:35:00,56.4,40.0,30.10,ESE,110,8.0,16.0,54,0.00,,,0.00,weatherlink.com 1.10,2013-10-24 21:35:00,
2013-10-24 17:50:00,56.0,41.0,30.11,ESE,112,12.0,14.0,57,0.00,,,0.00,weatherlink.com 1.10,2013-10-24 21:50:00,
2013-10-24 18:05:00,55.6,40.0,30.11,ESE,105,11.0,14.0,57,0.00,,,0.00,weatherlink.com 1.10,2013-10-24 22:05:00,
2013-10-24 18:20:00,55.1,40.0,30.11,East,98,3.0,12.0,58,0.00,,,0.00,weatherlink.com 1.10,2013-10-24 22:20:00,
2013-10-24 18:36:00,54.7,40.0,30.12,ESE,113,6.0,9.0,59,0.00,,,0.00,weatherlink.com 1.10,2013-10-24 22:36:00,
2013-10-24 18:51:00,55.0,41.0,30.12,ESE,110,7.0,11.0,59,0.00,,,0.00,weatherlink.com 1.10,2013-10-24 22:51:00,
2013-10-24 19:06:00,55.4,40.0,30.13,SE,126,8.0,12.0,57,0.00,,,0.00,weatherlink.com 1.10,2013-10-24 23:06:00,
2013-10-24 19:21:00,56.4,39.0,30.13,SE,136,10.0,15.0,53,0.00,,,0.00,weatherlink.com 1.10,2013-10-24 23:21:00,
2013-10-24 19:36:00,56.8,39.0,30.13,ESE,109,12.0,15.0,51,0.00,,,0.00,weatherlink.com 1.10,2013-10-24 23:36:00,
2013-10-24 19:51:00,56.9,39.0,30.14,ESE,118,10.0,15.0,52,0.00,,,0.00,weatherlink.com 1.10,2013-10-24 23:51:00,
2013-10-24 20:06:00,56.9,38.0,30.14,ESE,107,7.0,15.0,50,0.00,,,0.00,weatherlink.com 1.10,2013-10-25 00:06:00,
2013-10-24 20:21:00,56.8,41.0,30.14,SE,125,11.0,13.0,56,0.00,,,0.00,weatherlink.com 1.10,2013-10-25 00:21:00,
2013-10-24 20:36:00,56.8,41.0,30.15,ESE,122,7.0,14.0,55,0.00,,,0.00,weatherlink.com 1.10,2013-10-25 00:36:00,
2013-10-24 20:51:00,56.8,40.0,30.15,SE,135,9.0,13.0,54,0.00,,,0.00,weatherlink.com 1.10,2013-10-25 00:51:00,
2013-10-24 21:06:00,56.7,41.0,30.15,ESE,114,12.0,15.0,56,0.00,,,0.00,weatherlink.com 1.10,2013-10-25 01:06:00,
2013-10-24 21:21:00,56.6,39.0,30.16,ESE,117,8.0,14.0,53,0.00,,,0.00,weatherlink.com 1.10,2013-10-25 01:21:00,
2013-10-24 21:36:00,56.7,40.0,30.16,SE,136,6.0,15.0,55,0.00,,,0.00,weatherlink.com 1.10,2013-10-25 01:36:00,
2013-10-24 21:51:00,56.6,41.0,30.16,ESE,122,10.0,14.0,56,0.00,,,0.00,weatherlink.com 1.10,2013-10-25 01:51:00,
2013-10-24 22:06:00,56.4,41.0,30.17,SSE,147,8.0,12.0,57,0.00,,,0.00,weatherlink.com 1.10,2013-10-25 02:06:00,
2013-10-24 22:21:00,56.4,40.0,30.17,SE,125,6.0,12.0,54,0.00,,,0.00,weatherlink.com 1.10,2013-10-25 02:21:00,
2013-10-24 22:36:00,56.5,40.0,30.17,ESE,113,8.0,12.0,54,0.00,,,0.00,weatherlink.com 1.10,2013-10-25 02:36:00,
2013-10-24 22:51:00,56.3,41.0,30.18,SSE,150,10.0,13.0,56,0.00,,,0.00,weatherlink.com 1.10,2013-10-25 02:51:00,
2013-10-24 23:06:00,56.3,40.0,30.17,SE,125,3.0,13.0,55,0.00,,,0.00,weatherlink.com 1.10,2013-10-25 03:06:00,
2013-10-24 23:21:00,56.1,39.0,30.17,SE,143,10.0,12.0,54,0.00,,,0.00,weatherlink.com 1.10,2013-10-25 03:21:00,
2013-10-24 23:36:00,55.9,42.0,30.17,SE,138,4.0,8.0,59,0.00,,,0.00,weatherlink.com 1.10,2013-10-25 03:36:00,
2013-10-24 23:51:00,55.7,41.0,30.17,ESE,121,6.0,10.0,59,0.00,,,0.00,weatherlink.com 1.10,2013-10-25 03:51:00,